• Join FlightAware (Why Join?)
  • Login
  • US Flag 
04:42AM EDT


 

Airport Tracker/Info


-or-


 

Live Flight TrackerFlight Track Log ✈ UPS1121 ✈ 06-Aug-2013 ✈ KALB - KBDL

Flight Track Log - Related Links

Times and Time Zones

All times are in EDT time to prevent confusion due to time zone crossing. See the UPS1121 flight status page for this flight to view local times or setup timezone preferences in your user account.

Time Position Orientation Groundspeed Altitude Reporting Facility
EDT Latitude Longitude Course Direction KTS MPH feet Rate Location/Type
08:35PM 42.7361 -73.8083 173° South 144 166 1,800  Level Boston Center
08:36PM 42.7153 -73.8050 173° South 141 162 2,500 2,280 Climbing Boston Center
08:38PM 42.6456 -73.7047 133° Southeast 243 280 7,100 2,820 Climbing Boston Center
08:39PM 42.5883 -73.6103 129° Southeast 275 316 10,500 1,800 Climbing Boston Center
08:40PM 42.5350 -73.5219 129° Southeast 320 368 11,100 240 Climbing Boston Center
08:41PM 42.4589 -73.4025 131° Southeast 359 413 11,100  Level Boston Center
08:41PM 42.4178 -73.3428 133° Southeast 354 407 11,100  Level Boston Center
08:42PM 42.3825 -73.2944 135° Southeast 353 406 11,100  Level Boston Center
08:42PM 42.3475 -73.2519 138° Southeast 352 405 11,100 -120 Level Boston Center
08:43PM 42.3167 -73.1981 128° Southeast 353 406 11,000 -300 Descending Boston Center
08:43PM 42.2919 -73.1444 122° Southeast 343 395 10,800 -720 Descending Boston Center
08:44PM 42.2819 -73.0883 104° East 335 386 10,300 -1,500 Descending Boston Center
08:44PM 42.2717 -73.0350 105° East 293 337 9,300 -1,980 Descending Boston Center
08:45PM 42.2636 -72.9814 101° East 298 343 8,300 -1,920 Descending Boston Center
08:45PM 42.2472 -72.9225 111° Southeast 288 331 7,300 -1,560 Descending Boston Center
08:46PM 42.2206 -72.8214 110° East 287 330 5,900 -1,260 Descending Boston Center
08:47PM 42.1686 -72.7511 135° Southeast 222 255 4,800 -1,200 Descending Boston Center
08:48PM 42.1314 -72.6947 132° Southeast 199 229 3,600 -900 Descending Boston Center
08:49PM 42.0897 -72.6358 134° Southeast 199 229 2,900 -660 Descending Boston Center
08:50PM 42.0503 -72.5883 138° Southeast 181 208 2,200 -480 Descending Boston Center
08:52PM 42.0106 -72.5911 183° South 129 148 2,000 -480 Descending Boston Center
08:53PM 41.9875 -72.6217 225° Southwest 107 123 1,300 -660 Descending Boston Center
08:54PM 41.9647 -72.6522 225° Southwest 106 122 700 -480 Descending Boston Center
08:55PM 41.9394 -72.6828 222° Southwest 120 138 300 -360 Descending Boston Center
08:57PM 41.9333 -72.6833 228° Southwest  Level FlightAware Approximate
09:04PM 41.9392 -72.6834 228° Southwest  Level Estimated
09:05PM 41.9333 -72.6833 228° Southwest  Level FlightAware Approximate
09:06PM 41.9392 -72.6834 228° Southwest  Level Estimated